Time;durP1;ratioP1;P1;durP2;ratioP2;P2;SDS_P1;SDS_P2;PMS_P1;PMS_P2;Temp;Humidity;BMP_temperature;BMP_pressure;BME280_temperature;BME280_humidity;BME280_pressure;Samples;Min_cycle;Max_cycle;Signal;HPM_P1;HPM_P2
2022/07/03 00:02:01;;;;;;;;;18.00;15.50;;;;;21.36;73.90;99938.38;6280848;20;2818192;-63
2022/07/03 00:04:30;;;;;;;;;14.00;14.00;;;;;21.35;74.50;99936.66;6279690;20;2802440;-63
2022/07/03 00:06:59;;;;;;;;;17.00;15.00;;;;;21.04;75.90;99937.06;6280372;20;2817312;-63
2022/07/03 00:09:28;;;;;;;;;18.50;15.50;;;;;21.09;75.41;99933.88;6286023;20;2825268;-63
2022/07/03 00:11:56;;;;;;;;;17.00;17.00;;;;;21.01;76.22;99925.59;6285220;20;2826357;-63
2022/07/03 00:14:25;;;;;;;;;14.67;14.67;;;;;20.90;77.01;99928.56;6284368;20;3544027;-63
2022/07/03 00:16:54;;;;;;;;;18.00;17.00;;;;;20.72;76.63;99932.13;6286345;20;2833605;-64
2022/07/03 00:19:23;;;;;;;;;15.33;14.00;;;;;20.69;77.43;99931.56;6288585;20;2799388;-63
2022/07/03 00:21:57;;;;;;;;;19.00;15.00;;;;;20.62;77.11;99939.53;6317638;20;2824236;-64
2022/07/03 00:24:50;;;;;;;;;16.00;13.50;;;;;20.37;77.71;99933.72;6280519;20;2492024;-63
2022/07/03 00:27:24;;;;;;;;;21.33;19.67;;;;;20.18;78.69;99928.38;6283819;20;2840892;-63
2022/07/03 00:29:59;;;;;;;;;21.00;19.67;;;;;20.31;78.28;99939.78;6319259;20;3579484;-63
2022/07/03 00:32:29;;;;;;;;;18.00;17.00;;;;;19.86;80.05;99935.09;6281962;20;2829474;-63
2022/07/03 00:34:58;;;;;;;;;16.67;14.00;;;;;19.92;80.63;99928.19;6285037;20;3523207;-64
2022/07/03 00:37:27;;;;;;;;;17.00;16.00;;;;;19.94;79.93;99927.03;6315108;20;2829420;-64
2022/07/03 00:39:57;;;;;;;;;20.00;18.50;;;;;20.09;79.79;99934.72;6285005;20;2839877;-63
2022/07/03 00:42:28;;;;;;;;;18.67;18.67;;;;;20.29;78.38;99935.50;6285592;20;3573328;-64
2022/07/03 00:45:00;;;;;;;;;16.50;16.50;;;;;20.18;78.53;99940.13;6282279;20;2814845;-64
2022/07/03 00:47:31;;;;;;;;;18.67;18.67;;;;;20.17;78.78;99937.56;6283690;20;2841994;-64
2022/07/03 00:50:06;;;;;;;;;19.67;19.67;;;;;20.18;78.87;99937.41;6316626;20;3568970;-64
2022/07/03 00:52:38;;;;;;;;;22.00;19.00;;;;;20.18;79.26;99933.81;6285534;20;3581554;-64
2022/07/03 00:55:16;;;;;;;;;23.33;22.33;;;;;20.18;78.51;99939.28;6283466;20;3573296;-64
2022/07/03 00:57:47;;;;;;;;;20.00;19.00;;;;;20.09;79.37;99931.97;6288623;20;3583583;-64
2022/07/03 01:00:18;;;;;;;;;22.00;22.00;;;;;19.85;80.43;99929.78;6282517;20;3573267;-64
2022/07/03 01:03:16;;;;;;;;;20.67;19.67;;;;;20.16;79.31;99922.22;6316268;20;3573208;-64
2022/07/03 01:05:53;;;;;;;;;18.00;17.00;;;;;19.99;79.85;99926.59;6284221;20;2828424;-64
2022/07/03 01:08:45;;;;;;;;;21.50;19.00;;;;;20.13;79.88;99933.41;6285309;20;2820560;-63
2022/07/03 01:11:42;;;;;;;;;24.00;21.67;;;;;20.11;80.28;99930.81;6280289;20;2844133;-64
2022/07/03 01:14:44;;;;;;;;;22.67;21.00;;;;;20.10;80.09;99937.31;6314413;20;2841995;-64
2022/07/03 01:17:35;;;;;;;;;24.33;21.33;;;;;19.50;83.20;99926.66;6315416;20;3567947;-64
2022/07/03 01:20:06;;;;;;;;;13.00;13.00;;;;;19.49;82.87;99921.38;6281367;20;3519060;-64
2022/07/03 01:22:44;;;;;;;;;19.50;18.00;;;;;19.31;83.36;99929.44;6314961;20;2831533;-64
2022/07/03 01:25:35;;;;;;;;;17.00;17.00;;;;;19.14;83.93;99924.69;6283770;20;2483605;-64
2022/07/03 01:28:16;;;;;;;;;17.33;16.33;;;;;19.06;84.54;99920.84;6286148;20;3559758;-63
2022/07/03 01:30:53;;;;;;;;;15.50;15.50;;;;;19.23;82.38;99927.44;6310462;20;2817054;-64
2022/07/03 01:33:32;;;;;;;;;17.50;17.50;;;;;19.41;82.40;99919.41;6282938;20;2834635;-64
2022/07/03 01:36:01;;;;;;;;;16.00;14.33;;;;;19.09;82.65;99908.81;6281650;20;3546147;-64
2022/07/03 01:38:39;;;;;;;;;18.67;17.67;;;;;19.10;82.99;99915.13;6281872;20;2491933;-64
2022/07/03 01:41:12;;;;;;;;;20.00;15.50;;;;;19.39;81.34;99915.09;6313210;20;2826404;-51
2022/07/03 01:43:52;;;;;;;;;17.33;15.67;;;;;18.99;82.30;99925.16;6285883;20;2834722;-57
2022/07/03 01:46:29;;;;;;;;;14.50;14.00;;;;;19.11;82.01;99920.41;6309499;20;2491910;-54
2022/07/03 01:48:59;;;;;;;;;17.33;15.67;;;;;19.11;82.81;99923.13;6285290;20;3561104;-58
2022/07/03 01:51:29;;;;;;;;;14.00;13.00;;;;;18.99;83.44;99918.84;6313050;20;2489826;-56
2022/07/03 01:53:59;;;;;;;;;17.50;17.50;;;;;19.01;83.37;99912.25;6281482;20;2828387;-54
2022/07/03 01:56:33;;;;;;;;;25.00;22.67;;;;;19.39;81.88;99909.66;6278957;20;3579389;-55
2022/07/03 01:59:06;;;;;;;;;19.00;17.00;;;;;19.24;82.55;99907.34;6282878;20;2835709;-55
2022/07/03 02:02:00;;;;;;;;;12.67;12.67;;;;;18.99;84.20;99903.38;6282936;20;3541908;-53
2022/07/03 02:04:44;;;;;;;;;20.00;17.00;;;;;19.01;83.04;99895.94;6278757;20;3561861;-55
2022/07/03 02:07:56;;;;;;;;;15.50;15.50;;;;;18.47;85.87;99896.41;6280128;20;2812786;-56
2022/07/03 02:10:34;;;;;;;;;16.00;15.00;;;;;19.10;83.12;99887.91;6281839;20;2820047;-56
2022/07/03 02:13:28;;;;;;;;;17.50;17.50;;;;;18.71;84.92;99891.44;6279349;20;2831547;-55
2022/07/03 02:15:59;;;;;;;;;22.00;19.00;;;;;18.71;84.86;99898.75;6280599;20;2844017;-55
2022/07/03 02:18:37;;;;;;;;;18.00;18.00;;;;;18.57;86.16;99887.28;6281859;20;2835714;-54
2022/07/03 02:21:19;;;;;;;;;22.00;19.00;;;;;18.39;87.81;99888.94;6278470;20;2827364;-58
2022/07/03 02:24:27;;;;;;;;;20.00;18.50;;;;;18.35;88.36;99892.94;6280724;20;2830600;-59
2022/07/03 02:27:05;;;;;;;;;21.33;21.00;;;;;18.63;86.62;99892.13;6281376;20;3557678;-56
2022/07/03 02:30:04;;;;;;;;;17.67;17.67;;;;;18.86;84.66;99892.78;6314104;20;3566910;-57
2022/07/03 02:32:45;;;;;;;;;23.67;21.00;;;;;18.69;86.12;99896.16;6283002;20;3571179;-56
2022/07/03 02:35:31;;;;;;;;;24.00;21.00;;;;;18.89;85.44;99891.63;6278970;20;2834703;-56
2022/07/03 02:38:22;;;;;;;;;22.33;18.33;;;;;19.17;85.01;99883.56;6317268;20;3574225;-54
2022/07/03 02:41:23;;;;;;;;;22.00;19.00;;;;;19.06;84.44;99888.19;6280604;20;2844003;-56
2022/07/03 02:44:46;;;;;;;;;25.33;22.00;;;;;18.99;85.69;99892.50;6311103;20;3578373;-57
2022/07/03 02:47:51;;;;;;;;;21.50;21.50;;;;;19.08;86.08;99891.59;6276445;20;2839964;-56
2022/07/03 02:50:25;;;;;;;;;19.50;18.00;;;;;19.06;85.71;99893.66;6279652;20;2833607;-57
2022/07/03 02:53:07;;;;;;;;;22.50;19.50;;;;;18.93;85.75;99887.63;6277853;20;2835774;-57
2022/07/03 02:55:47;;;;;;;;;21.00;20.50;;;;;18.69;86.71;99890.69;6279976;20;2834671;-56
2022/07/03 02:58:27;;;;;;;;;22.00;22.00;;;;;18.28;88.60;99887.22;6281856;20;2850281;-57
2022/07/03 03:01:07;;;;;;;;;18.50;16.00;;;;;18.10;88.18;99884.28;6278383;20;2831628;-56
2022/07/03 03:03:44;;;;;;;;;23.00;21.00;;;;;18.64;85.04;99890.28;6280704;20;2823227;-56
2022/07/03 03:06:21;;;;;;;;;20.50;19.00;;;;;18.44;85.70;99892.13;6275279;20;2496114;-56
2022/07/03 03:09:03;;;;;;;;;18.00;16.00;;;;;18.43;85.42;99891.25;6280567;20;2833997;-56
2022/07/03 03:11:41;;;;;;;;;18.50;16.50;;;;;18.35;86.17;99896.53;6278633;20;2829451;-56
2022/07/03 03:14:15;;;;;;;;;17.00;15.00;;;;;18.42;84.83;99889.53;6281341;20;2808725;-55
2022/07/03 03:16:52;;;;;;;;;20.00;20.00;;;;;18.05;86.01;99891.13;6277625;20;2839831;-56
2022/07/03 03:19:23;;;;;;;;;19.00;19.00;;;;;18.27;85.69;99893.63;6279889;20;2500268;-55
2022/07/03 03:21:59;;;;;;;;;22.00;19.00;;;;;18.35;84.88;99899.25;6285084;20;3579417;-56
2022/07/03 03:24:29;;;;;;;;;20.00;17.00;;;;;18.53;84.22;99902.13;6275517;20;2835700;-56
2022/07/03 03:26:59;;;;;;;;;20.00;20.00;;;;;18.63;85.02;99908.44;6278450;20;2844082;-56
2022/07/03 03:29:28;;;;;;;;;18.33;17.33;;;;;18.65;83.72;99901.03;6313217;20;3569149;-56
2022/07/03 03:31:57;;;;;;;;;20.50;19.50;;;;;18.91;83.02;99910.53;6307562;20;2832603;-56
2022/07/03 03:34:32;;;;;;;;;13.50;13.50;;;;;18.54;84.82;99906.59;6285098;20;2803404;-56
2022/07/03 03:37:01;;;;;;;;;20.33;18.33;;;;;18.51;84.11;99912.31;6278834;20;3568977;-57
2022/07/03 03:39:30;;;;;;;;;20.00;19.50;;;;;18.48;84.52;99904.41;6277330;20;2834684;-56
2022/07/03 03:42:01;;;;;;;;;20.00;17.67;;;;;19.02;82.71;99911.25;6284866;20;3573186;-56
2022/07/03 03:44:30;;;;;;;;;22.00;20.00;;;;;19.14;81.57;99911.97;6285181;20;2835694;-55
2022/07/03 03:46:59;;;;;;;;;18.33;18.33;;;;;19.06;82.33;99915.41;6287291;20;3567988;-57
2022/07/03 03:49:29;;;;;;;;;20.00;19.50;;;;;19.24;82.25;99911.94;6282402;20;2841943;-57
2022/07/03 03:51:58;;;;;;;;;20.33;19.00;;;;;19.08;82.49;99912.53;6282962;20;2835820;-56
2022/07/03 03:54:27;;;;;;;;;19.50;18.50;;;;;19.38;81.29;99916.09;6318141;20;2835819;-56
2022/07/03 03:56:56;;;;;;;;;22.00;21.00;;;;;19.44;80.94;99912.78;6284759;20;2836793;-57
2022/07/03 03:59:24;;;;;;;;;21.67;18.00;;;;;19.30;82.10;99911.38;6287342;20;3575226;-55
2022/07/03 04:01:53;;;;;;;;;20.00;17.00;;;;;19.55;81.52;99903.59;6283365;20;3563979;-56
2022/07/03 04:04:22;;;;;;;;;18.00;18.00;;;;;19.57;80.80;99901.59;6314741;20;2834653;-56
2022/07/03 04:06:51;;;;;;;;;20.00;20.00;;;;;19.64;80.57;99903.59;6283853;20;2834627;-54
2022/07/03 04:09:20;;;;;;;;;21.67;20.00;;;;;19.62;81.30;99907.47;6284173;20;2841923;-56
2022/07/03 04:11:49;;;;;;;;;19.50;18.50;;;;;19.68;81.72;99907.75;6313798;20;2837802;-55
2022/07/03 04:14:17;;;;;;;;;19.50;18.00;;;;;19.90;80.67;99909.25;6285924;20;2830499;-56
2022/07/03 04:16:47;;;;;;;;;26.33;21.67;;;;;20.01;80.78;99910.06;6283399;20;2852361;-56
2022/07/03 04:19:15;;;;;;;;;44.33;37.67;;;;;20.24;80.02;99902.38;6320279;20;3573138;-56
2022/07/03 04:21:44;;;;;;;;;25.33;24.00;;;;;20.41;78.92;99906.16;6287971;20;3591923;-58
2022/07/03 04:24:13;;;;;;;;;23.00;21.00;;;;;20.48;79.06;99891.75;6283660;20;2837751;-54
2022/07/03 04:26:42;;;;;;;;;27.33;24.33;;;;;20.49;79.18;99892.63;6316515;20;3591973;-56
2022/07/03 04:29:11;;;;;;;;;24.33;22.00;;;;;20.30;79.99;99888.13;6286773;20;3573809;-56
2022/07/03 04:31:40;;;;;;;;;20.50;19.50;;;;;20.64;79.06;99893.81;6283125;20;2844007;-54
2022/07/03 04:34:08;;;;;;;;;18.67;18.67;;;;;20.51;79.29;99891.47;6288899;20;3567961;-55
2022/07/03 04:36:37;;;;;;;;;23.67;21.33;;;;;20.87;77.90;99885.19;6285131;20;3578433;-57
2022/07/03 04:39:06;;;;;;;;;22.00;17.00;;;;;20.91;77.96;99892.94;6289953;20;3585752;-58
2022/07/03 04:41:34;;;;;;;;;22.67;22.67;;;;;20.87;79.27;99882.47;6285450;20;3574302;-58
2022/07/03 04:44:03;;;;;;;;;22.67;19.67;;;;;21.08;78.56;99887.63;6286329;20;3573149;-57
2022/07/03 04:46:32;;;;;;;;;20.00;20.00;;;;;21.18;76.97;99872.00;6280458;20;3570037;-58
2022/07/03 04:49:01;;;;;;;;;23.33;19.00;;;;;21.33;77.21;99883.19;6285722;20;3563785;-57
2022/07/03 04:51:30;;;;;;;;;25.33;21.00;;;;;21.22;77.34;99877.00;6281323;20;2844194;-58
2022/07/03 04:53:59;;;;;;;;;23.00;21.67;;;;;21.08;77.33;99866.63;6315731;20;3586716;-57
2022/07/03 04:56:27;;;;;;;;;20.50;19.50;;;;;21.18;77.68;99882.91;6283394;20;2844024;-58
2022/07/03 04:58:56;;;;;;;;;22.67;21.00;;;;;21.45;76.10;99885.53;6287217;20;3570124;-58
2022/07/03 05:01:25;;;;;;;;;23.33;20.33;;;;;21.64;76.43;99891.81;6285751;20;3579383;-58
2022/07/03 05:03:54;;;;;;;;;22.00;20.33;;;;;21.89;75.22;99906.50;6287991;20;3571058;-58
2022/07/03 05:06:22;;;;;;;;;25.67;21.67;;;;;21.92;73.93;99917.13;6282556;20;3583717;-58
2022/07/03 05:08:52;;;;;;;;;23.00;21.33;;;;;22.18;72.87;99913.50;6283980;20;2848246;-58
2022/07/03 05:11:20;;;;;;;;;22.00;21.00;;;;;22.31;74.09;99913.94;6313270;20;2825290;-60
2022/07/03 05:13:49;;;;;;;;;21.00;19.50;;;;;22.72;71.43;99922.25;6284739;20;2833708;-58
2022/07/03 05:16:18;;;;;;;;;19.00;19.00;;;;;22.76;71.15;99924.50;6281911;20;2483691;-58
2022/07/03 05:18:46;;;;;;;;;24.00;18.00;;;;;23.00;69.87;99925.63;6319924;20;3579386;-58
2022/07/03 05:21:15;;;;;;;;;20.50;17.00;;;;;23.17;70.31;99924.63;6285544;20;2829490;-60
2022/07/03 05:23:44;;;;;;;;;17.00;17.00;;;;;23.40;69.50;99922.03;6280642;20;2829416;-58
2022/07/03 05:26:13;;;;;;;;;20.67;19.67;;;;;23.58;68.30;99918.28;6286862;20;3572180;-58
2022/07/03 05:28:42;;;;;;;;;18.67;18.67;;;;;23.65;67.64;99924.78;6285718;20;3566926;-58
2022/07/03 05:31:11;;;;;;;;;15.50;15.50;;;;;23.92;66.44;99920.81;6283203;20;2811727;-56
2022/07/03 05:33:40;;;;;;;;;20.67;18.00;;;;;23.59;67.52;99925.44;6284100;20;3569042;-57
2022/07/03 05:36:09;;;;;;;;;18.33;18.33;;;;;23.96;66.87;99924.06;6284707;20;3575277;-56
2022/07/03 05:41:24;;;;;;;;;18.00;16.00;;;;;24.29;65.53;99938.53;6320370;20;2500254;-56
2022/07/03 05:43:53;;;;;;;;;17.00;16.00;;;;;24.34;65.96;99935.28;6313056;20;3562810;-56
2022/07/03 05:46:22;;;;;;;;;12.67;12.67;;;;;24.62;65.26;99928.31;6281779;20;3534624;-59
2022/07/03 05:48:50;;;;;;;;;17.33;17.00;;;;;24.44;64.62;99933.16;6286615;20;3573198;-56
2022/07/03 05:51:19;;;;;;;;;17.00;17.00;;;;;24.50;65.04;99940.72;6282030;20;2835935;-57
2022/07/03 05:53:48;;;;;;;;;17.00;17.00;;;;;24.64;64.96;99926.22;6282775;20;2824249;-56
2022/07/03 05:56:16;;;;;;;;;16.33;16.00;;;;;24.55;65.21;99932.81;6284742;20;3549204;-57
2022/07/03 05:58:45;;;;;;;;;16.00;14.33;;;;;24.89;64.55;99923.34;6313800;20;2469077;-58
2022/07/03 06:01:13;;;;;;;;;19.00;18.00;;;;;25.23;62.94;99930.38;6312530;20;2715896;-58
2022/07/03 06:03:42;;;;;;;;;15.00;14.00;;;;;25.23;62.88;99920.22;6312944;20;2686735;-59
2022/07/03 06:06:11;;;;;;;;;16.00;15.00;;;;;25.24;62.36;99921.06;6310746;20;2809624;-55
2022/07/03 06:08:39;;;;;;;;;14.67;14.67;;;;;25.34;61.84;99916.19;6284110;20;3535782;-58
2022/07/03 06:11:08;;;;;;;;;16.00;16.00;;;;;25.92;60.64;99920.13;6316942;20;3569015;-57
2022/07/03 06:13:37;;;;;;;;;21.67;17.00;;;;;26.05;59.65;99913.97;6285008;20;2832619;-57
2022/07/03 06:16:06;;;;;;;;;14.00;12.67;;;;;26.25;59.24;99919.75;6316534;20;3522110;-61
2022/07/03 06:18:34;;;;;;;;;14.00;13.00;;;;;26.35;59.17;99920.31;6318941;20;3527327;-61
2022/07/03 06:21:03;;;;;;;;;17.33;17.33;;;;;26.45;59.55;99920.88;6318724;20;3562836;-61
2022/07/03 06:23:31;;;;;;;;;14.33;14.00;;;;;26.25;60.31;99914.22;6289711;20;3536718;-61
2022/07/03 06:26:16;;;;;;;;;14.00;14.00;;;;;26.84;56.80;99914.19;6318107;20;3534609;-54
2022/07/03 06:28:45;;;;;;;;;15.50;15.50;;;;;27.07;57.03;99916.75;6316925;20;2810654;-57
2022/07/03 06:31:14;;;;;;;;;14.50;14.00;;;;;27.12;57.80;99916.16;6286778;20;2810667;-56
2022/07/03 06:33:42;;;;;;;;;16.33;14.00;;;;;27.06;56.93;99912.28;6288258;20;3539927;-56
2022/07/03 06:36:11;;;;;;;;;20.67;16.67;;;;;27.07;57.34;99913.16;6318158;20;3569017;-55
2022/07/03 06:38:40;;;;;;;;;16.00;14.50;;;;;27.63;55.30;99902.25;6282736;20;2816944;-56
2022/07/03 06:41:08;;;;;;;;;16.00;14.00;;;;;28.13;53.60;99914.09;6284410;20;2819060;-57
2022/07/03 06:43:37;;;;;;;;;16.00;15.00;;;;;27.93;54.36;99913.09;6284726;20;2819042;-58
2022/07/03 06:46:06;;;;;;;;;17.00;15.00;;;;;28.33;52.65;99916.97;6285201;20;2812748;-62
2022/07/03 06:48:34;;;;;;;;;13.50;13.50;;;;;28.71;51.89;99911.00;6286025;20;2795051;-62
2022/07/03 06:51:03;;;;;;;;;15.50;15.50;;;;;28.88;51.33;99914.22;6285981;20;2809631;-53
2022/07/03 06:53:31;;;;;;;;;15.00;15.00;;;;;28.87;52.05;99909.75;6291876;20;3525363;-52
2022/07/03 06:56:00;;;;;;;;;14.00;14.00;;;;;29.50;50.18;99912.25;6319032;20;3525337;-52
2022/07/03 06:58:28;;;;;;;;;15.67;13.67;;;;;29.59;49.87;99913.72;6305817;20;2483641;-49
2022/07/03 07:00:57;;;;;;;;;15.00;15.00;;;;;29.46;50.16;99902.66;6319677;20;3544056;-57
2022/07/03 07:03:26;;;;;;;;;15.00;15.00;;;;;29.25;51.04;99906.47;6314950;20;2803580;-57
2022/07/03 07:05:54;;;;;;;;;14.67;14.67;;;;;29.23;50.05;99909.44;6289223;20;3526253;-58
2022/07/03 07:08:23;;;;;;;;;17.50;14.50;;;;;29.20;50.78;99909.00;6316161;20;2803380;-55
2022/07/03 07:10:51;;;;;;;;;11.00;11.00;;;;;29.66;49.41;99902.69;6289256;20;2788809;-56
2022/07/03 07:13:20;;;;;;;;;11.00;11.00;;;;;29.15;50.40;99906.00;6322580;20;2784739;-57
2022/07/03 07:15:48;;;;;;;;;12.00;12.00;;;;;29.85;49.47;99904.56;6314173;20;3522238;-54
2022/07/03 07:18:17;;;;;;;;;15.00;14.00;;;;;30.11;48.17;99908.38;6282561;20;2797225;-54
2022/07/03 07:20:46;;;;;;;;;15.00;15.00;;;;;30.13;48.73;99906.25;6283988;20;2483597;-55
2022/07/03 07:23:14;;;;;;;;;14.33;13.67;;;;;30.09;49.06;99900.25;6316292;20;3526297;-54
2022/07/03 07:25:43;;;;;;;;;15.00;13.00;;;;;30.49;47.53;99904.88;6283103;20;3523190;-56
2022/07/03 07:28:12;;;;;;;;;14.50;14.50;;;;;30.50;47.37;99909.34;6314452;20;2799213;-55
2022/07/03 07:30:40;;;;;;;;;15.00;14.33;;;;;30.45;48.10;99903.63;6285048;20;2483617;-57
2022/07/03 07:33:10;;;;;;;;;13.00;13.00;;;;;30.44;47.09;99904.66;6314945;20;2492019;-57
2022/07/03 07:35:39;;;;;;;;;15.50;14.50;;;;;31.37;46.49;99912.50;6315612;20;2806568;-59
2022/07/03 07:38:08;;;;;;;;;13.00;11.67;;;;;30.75;47.45;99910.28;6285544;20;2483579;-58
2022/07/03 07:40:37;;;;;;;;;12.33;12.33;;;;;31.17;46.20;99916.25;6319501;20;3520051;-57
2022/07/03 07:43:06;;;;;;;;;13.67;13.33;;;;;31.37;46.38;99912.50;6315649;20;3519036;-58
2022/07/03 07:45:35;;;;;;;;;12.67;12.67;;;;;31.19;45.62;99914.13;6317984;20;3518038;-58
2022/07/03 07:48:04;;;;;;;;;14.50;13.50;;;;;31.39;45.74;99915.97;6314448;20;2812775;-58
2022/07/03 07:50:33;;;;;;;;;16.50;13.00;;;;;31.40;45.63;99917.66;6285098;20;2814883;-57
2022/07/03 07:53:01;;;;;;;;;13.67;12.33;;;;;30.95;46.88;99914.94;6288844;20;3518998;-58
2022/07/03 07:55:30;;;;;;;;;12.33;12.33;;;;;31.63;45.03;99917.88;6318228;20;2484211;-58
2022/07/03 07:58:01;;;;;;;;;13.00;12.00;;;;;31.75;44.83;99917.13;6317379;20;2471116;-58
2022/07/03 08:00:30;;;;;;;;;14.33;12.67;;;;;31.89;45.17;99918.72;6318982;20;3532551;-57
2022/07/03 08:05:46;;;;;;;;;13.00;13.00;;;;;30.68;46.90;99909.50;6287781;20;2483596;-62
2022/07/03 08:08:17;;;;;;;;;14.33;13.33;;;;;30.82;46.64;99910.31;6318318;20;3531663;-62
2022/07/03 08:10:49;;;;;;;;;14.00;14.00;;;;;31.09;46.29;99921.22;6312672;20;2802464;-61
2022/07/03 08:13:21;;;;;;;;;15.67;14.00;;;;;30.77;46.17;99919.25;6283755;20;3539861;-62
2022/07/03 08:15:49;;;;;;;;;14.00;13.33;;;;;31.15;46.63;99915.66;6284343;20;3517980;-64
2022/07/03 08:18:18;;;;;;;;;14.00;14.00;;;;;31.70;45.27;99915.91;6315287;20;3533555;-63
2022/07/03 08:20:46;;;;;;;;;17.33;17.33;;;;;31.90;44.93;99928.75;6317766;20;3561679;-63
2022/07/03 08:23:15;;;;;;;;;14.50;13.50;;;;;31.97;44.22;99921.25;6276935;20;2806537;-63
2022/07/03 08:25:44;;;;;;;;;11.00;11.00;;;;;32.31;42.92;99924.53;6283450;20;2786917;-65
2022/07/03 08:28:12;;;;;;;;;12.67;12.67;;;;;31.38;45.74;99914.22;6283343;20;2492176;-66
2022/07/03 08:30:41;;;;;;;;;13.33;12.33;;;;;32.16;44.31;99924.03;6323462;20;3541933;-65
2022/07/03 08:33:09;;;;;;;;;12.50;12.50;;;;;31.99;44.00;99923.78;6315505;20;2808630;-56
2022/07/03 08:35:38;;;;;;;;;20.00;15.00;;;;;32.16;43.84;99924.88;6287738;20;2812822;-54
2022/07/03 08:38:06;;;;;;;;;13.67;13.67;;;;;31.81;43.93;99924.53;6286462;20;2483579;-51
2022/07/03 08:40:36;;;;;;;;;12.67;12.00;;;;;32.18;43.58;99921.84;6315274;20;3527346;-53
2022/07/03 08:43:05;;;;;;;;;15.67;13.33;;;;;32.46;43.06;99922.19;6287800;20;3531473;-50
2022/07/03 08:45:37;;;;;;;;;14.67;13.67;;;;;32.47;42.95;99926.72;6320597;20;2483579;-52
2022/07/03 08:48:08;;;;;;;;;12.67;12.67;;;;;32.12;44.49;99921.72;6319522;20;3514888;-53
2022/07/03 08:50:40;;;;;;;;;12.33;12.33;;;;;32.06;43.50;99925.41;6321585;20;3515964;-55
2022/07/03 08:53:11;;;;;;;;;14.00;13.67;;;;;31.65;44.62;99918.50;6316249;20;3524318;-53
2022/07/03 08:55:40;;;;;;;;;15.33;15.33;;;;;30.84;46.67;99917.31;6320034;20;3551404;-51
2022/07/03 08:58:13;;;;;;;;;15.33;12.33;;;;;30.94;46.29;99910.44;6288971;20;2491995;-55
2022/07/03 09:00:42;;;;;;;;;5.67;5.67;;;;;31.28;45.54;99912.78;6329523;20;2739892;-50
2022/07/03 09:03:14;;;;;;;;;18.33;14.00;;;;;32.03;44.28;99917.53;6317862;20;3526465;-54
2022/07/03 09:05:42;;;;;;;;;16.00;16.00;;;;;31.88;43.27;99911.44;6317159;20;2827343;-52
2022/07/03 09:08:16;;;;;;;;;13.33;13.33;;;;;31.23;44.75;99915.38;6288461;20;3525632;-54
2022/07/03 09:10:46;;;;;;;;;14.67;11.67;;;;;31.40;44.83;99912.09;6320990;20;2479437;-55
2022/07/03 09:13:15;;;;;;;;;14.50;13.50;;;;;31.74;44.21;99909.91;6319388;20;2797261;-58
2022/07/03 09:15:44;;;;;;;;;14.00;14.00;;;;;31.99;43.69;99913.50;6287438;20;3521090;-52
2022/07/03 09:18:12;;;;;;;;;15.00;13.50;;;;;32.36;43.35;99907.97;6286535;20;2808584;-51
2022/07/03 09:20:43;;;;;;;;;28.33;28.33;;;;;31.81;43.15;99905.09;6285498;20;3588870;-55
2022/07/03 09:23:20;;;;;;;;;16.00;14.00;;;;;32.05;42.26;99895.94;6282541;20;3538799;-53
2022/07/03 09:26:01;;;;;;;;;14.33;12.67;;;;;32.70;40.80;99908.44;6286331;20;2491920;-58
2022/07/03 09:28:52;;;;;;;;;13.00;13.00;;;;;32.21;40.71;99899.19;6319543;20;3508596;-58
2022/07/03 09:31:24;;;;;;;;;14.00;11.00;;;;;32.53;39.99;99891.56;6289692;20;2483629;-58
2022/07/03 09:34:03;;;;;;;;;8.67;8.67;;;;;32.37;40.36;99890.22;6317657;20;3459603;-57
2022/07/03 09:36:50;;;;;;;;;9.00;9.00;;;;;32.41;40.72;99879.50;6320500;20;2750307;-58
2022/07/03 09:39:34;;;;;;;;;17.33;13.00;;;;;32.53;40.72;99891.56;6316105;20;3539822;-58
2022/07/03 09:42:09;;;;;;;;;13.33;13.00;;;;;32.54;40.30;99894.09;6317663;20;3522127;-58
2022/07/03 09:44:47;;;;;;;;;14.00;12.00;;;;;32.91;41.34;99877.34;6318484;20;3509744;-58
2022/07/03 09:47:24;;;;;;;;;9.00;9.00;;;;;33.32;40.32;99884.03;6283543;20;3463882;-58
2022/07/03 09:50:04;;;;;;;;;12.33;11.00;;;;;32.90;40.42;99864.53;6320341;20;2483589;-59
2022/07/03 09:52:45;;;;;;;;;12.00;12.00;;;;;33.08;38.97;99871.16;6317774;20;3520065;-58
2022/07/03 09:55:19;;;;;;;;;11.00;11.00;;;;;33.11;39.01;99876.25;6319279;20;3514934;-58
2022/07/03 09:57:50;;;;;;;;;14.33;12.33;;;;;33.20;39.08;99870.09;6316593;20;3514816;-59
2022/07/03 10:00:34;;;;;;;;;13.00;13.00;;;;;33.00;40.38;99869.53;6317885;20;2483613;-59
2022/07/03 10:03:10;;;;;;;;;12.33;11.00;;;;;33.37;39.42;99866.63;6319799;20;3515998;-58
2022/07/03 10:05:44;;;;;;;;;12.00;12.00;;;;;33.68;39.22;99868.25;6315767;20;3511754;-58
2022/07/03 10:08:15;;;;;;;;;13.00;11.50;;;;;33.67;38.51;99858.19;6295196;20;2666001;-58
2022/07/03 10:10:47;;;;;;;;;12.67;11.00;;;;;33.81;39.10;99865.22;6318168;20;3518125;-59
2022/07/03 10:13:16;;;;;;;;;10.00;8.33;;;;;33.94;38.53;99861.34;6283860;20;2772306;-59
2022/07/03 10:15:45;;;;;;;;;9.67;8.67;;;;;33.90;37.99;99862.06;6316552;20;3487746;-60
2022/07/03 10:18:15;;;;;;;;;8.67;8.67;;;;;33.57;38.55;99853.25;6322547;20;2483996;-58
2022/07/03 10:20:46;;;;;;;;;11.00;11.00;;;;;33.37;38.66;99847.97;6312897;20;3512748;-57
2022/07/03 10:23:22;;;;;;;;;14.33;13.00;;;;;33.90;37.34;99851.75;6285997;20;2489859;-58
2022/07/03 10:25:51;;;;;;;;;11.00;11.00;;;;;33.67;37.92;99849.84;6317416;20;3515882;-57
2022/07/03 10:28:20;;;;;;;;;12.00;12.00;;;;;34.59;37.12;99842.69;6321495;20;3520018;-57
2022/07/03 10:30:49;;;;;;;;;11.67;9.00;;;;;34.01;35.50;99845.31;6314546;20;3490945;-59
2022/07/03 10:33:18;;;;;;;;;12.67;12.00;;;;;34.34;35.67;99845.75;6316681;20;3514950;-58
2022/07/03 10:35:54;;;;;;;;;12.67;11.67;;;;;33.76;35.77;99842.81;6319704;20;3509600;-57
2022/07/03 10:38:42;;;;;;;;;12.33;12.00;;;;;33.21;37.02;99832.81;6318946;20;2483663;-58
2022/07/03 10:47:02;;;;;;;;;10.00;9.33;;;;;34.06;35.02;99825.97;6281879;20;3485779;-58
2022/07/03 10:49:35;;;;;;;;;5.00;5.00;;;;;33.91;35.17;99819.19;6320213;20;2723192;-61
2022/07/03 10:52:06;;;;;;;;;11.00;10.33;;;;;33.99;35.30;99821.59;6316751;20;3502300;-59
2022/07/03 10:54:50;;;;;;;;;9.33;9.33;;;;;34.46;34.90;99818.69;6316729;20;3480426;-59
2022/07/03 10:57:19;;;;;;;;;11.00;11.00;;;;;34.21;34.27;99811.53;6316962;20;2483600;-60
2022/07/03 10:59:47;;;;;;;;;11.67;10.67;;;;;33.80;34.84;99807.81;6318003;20;2484027;-59
2022/07/03 11:02:40;;;;;;;;;10.67;10.67;;;;;33.78;34.24;99815.56;6319291;20;3503341;-60
2022/07/03 11:05:26;;;;;;;;;13.67;9.00;;;;;33.60;34.93;99796.22;6316354;20;2777487;-61
2022/07/03 11:07:58;;;;;;;;;12.00;11.33;;;;;33.48;35.24;99800.91;6314960;20;2491933;-61
2022/07/03 11:10:26;;;;;;;;;12.33;11.33;;;;;34.33;34.33;99799.47;6313270;20;3514790;-55
2022/07/03 11:13:16;;;;;;;;;9.00;9.00;;;;;34.50;32.81;99794.81;6283878;20;3458544;-57
2022/07/03 11:15:52;;;;;;;;;12.00;9.00;;;;;34.82;32.18;99797.13;6321601;20;2773272;-57
2022/07/03 11:18:33;;;;;;;;;10.67;10.00;;;;;34.52;32.74;99790.69;6322754;20;2789850;-56
2022/07/03 11:21:31;;;;;;;;;8.67;8.67;;;;;34.37;33.75;99789.53;6312706;20;2744242;-57
2022/07/03 11:24:36;;;;;;;;;9.50;9.50;;;;;34.11;33.25;99780.66;6311949;20;2771178;-57
2022/07/03 11:27:37;;;;;;;;;13.67;8.00;;;;;34.14;33.69;99780.16;6311656;20;3496062;-58
2022/07/03 11:30:06;;;;;;;;;11.00;11.00;;;;;34.44;33.36;99779.06;6317542;20;3508659;-61
2022/07/03 11:32:51;;;;;;;;;11.33;10.00;;;;;34.01;33.80;99775.66;6318338;20;2483579;-62
2022/07/03 11:35:51;;;;;;;;;12.00;9.00;;;;;35.10;33.09;99771.97;6313319;20;2775342;-62
2022/07/03 11:38:39;;;;;;;;;9.00;9.00;;;;;34.17;33.15;99762.91;6319966;20;2483775;-62
2022/07/03 11:41:12;;;;;;;;;10.00;10.00;;;;;34.01;32.89;99758.09;6310875;20;3512737;-58
2022/07/03 11:44:07;;;;;;;;;10.00;10.00;;;;;34.49;33.27;99762.44;6288277;20;2483586;-60